Time;durP1;ratioP1;P1;durP2;ratioP2;P2;SDS_P1;SDS_P2;PMS_P1;PMS_P2;Temp;Humidity;BMP_temperature;BMP_pressure;BME280_temperature;BME280_humidity;BME280_pressure;Samples;Min_cycle;Max_cycle;Signal;HPM_P1;HPM_P2
2024/02/24 00:02:20;;;;;;;2.50;2.30;;;5.60;99.90;;;;;;5050849;28;20202;-80
2024/02/24 00:04:47;;;;;;;1.02;1.02;;;5.70;99.90;;;;;;5032106;28;20201;-81
2024/02/24 00:07:14;;;;;;;0.98;0.98;;;5.60;99.90;;;;;;5052388;28;20207;-80
2024/02/24 00:09:41;;;;;;;0.70;0.70;;;5.60;99.90;;;;;;5041494;28;20232;-80
2024/02/24 00:12:08;;;;;;;0.60;0.60;;;5.60;99.90;;;;;;5051858;28;20202;-81
2024/02/24 00:14:35;;;;;;;1.13;1.05;;;5.50;99.90;;;;;;5031807;28;20410;-79
2024/02/24 00:17:02;;;;;;;1.05;0.93;;;5.60;99.90;;;;;;5055911;28;20199;-80
2024/02/24 00:19:29;;;;;;;0.65;0.65;;;5.50;99.90;;;;;;5047609;28;20248;-83
2024/02/24 00:21:57;;;;;;;1.52;1.42;;;5.60;99.90;;;;;;5052493;28;20200;-80
2024/02/24 00:24:24;;;;;;;2.13;2.03;;;5.50;99.90;;;;;;5062231;28;20224;-80
2024/02/24 00:26:51;;;;;;;0.90;0.90;;;5.60;99.90;;;;;;5066095;28;20208;-80
2024/02/24 00:29:18;;;;;;;1.45;1.33;;;5.70;99.90;;;;;;5062898;28;20206;-81
2024/02/24 00:31:45;;;;;;;1.08;0.98;;;5.50;99.90;;;;;;5058989;28;20480;-81
2024/02/24 00:34:12;;;;;;;1.25;1.25;;;5.60;99.90;;;;;;5059644;28;20438;-80
2024/02/24 00:36:39;;;;;;;3.38;3.17;;;5.60;99.90;;;;;;5043719;28;20216;-81
2024/02/24 00:39:07;;;;;;;3.17;3.03;;;5.60;99.90;;;;;;5053700;28;20280;-80
2024/02/24 00:41:34;;;;;;;4.25;4.05;;;5.60;99.90;;;;;;5064639;28;20194;-80
2024/02/24 00:44:01;;;;;;;2.25;2.13;;;5.50;99.90;;;;;;5067602;28;20216;-80
2024/02/24 00:46:28;;;;;;;4.53;4.13;;;5.50;99.90;;;;;;5055934;28;20356;-80
2024/02/24 00:48:55;;;;;;;3.90;3.70;;;5.60;99.90;;;;;;5030806;28;20272;-80
2024/02/24 00:51:23;;;;;;;3.50;2.55;;;5.50;99.90;;;;;;5049494;28;20204;-80
2024/02/24 00:53:50;;;;;;;4.20;3.90;;;5.50;99.90;;;;;;5049239;28;22272;-80
2024/02/24 00:56:17;;;;;;;2.28;2.17;;;5.50;99.90;;;;;;5042287;28;20189;-79
2024/02/24 00:58:44;;;;;;;4.65;2.22;;;5.50;99.90;;;;;;5043028;28;20227;-80
2024/02/24 01:01:15;;;;;;;0.40;0.40;;;5.40;99.90;;;;;;5042115;28;20268;-79
2024/02/24 01:03:43;;;;;;;0.47;0.47;;;5.40;99.90;;;;;;5052130;28;20217;-83
2024/02/24 01:06:10;;;;;;;1.20;1.10;;;5.40;99.90;;;;;;5042789;28;20202;-81
2024/02/24 01:08:37;;;;;;;0.50;0.50;;;5.60;99.90;;;;;;5048498;28;20215;-80
2024/02/24 01:11:06;;;;;;;0.40;0.40;;;5.50;99.90;;;;;;5041102;28;20196;-79
2024/02/24 01:13:33;;;;;;;1.67;1.58;;;5.50;99.90;;;;;;5041012;28;20207;-79
2024/02/24 01:16:00;;;;;;;2.67;2.35;;;5.60;99.90;;;;;;5048744;28;20250;-81
2024/02/24 01:18:28;;;;;;;0.60;0.60;;;5.60;99.90;;;;;;5056859;28;20232;-81
2024/02/24 01:20:55;;;;;;;0.50;0.50;;;5.50;99.90;;;;;;5054092;28;20222;-80
2024/02/24 01:23:22;;;;;;;0.63;0.63;;;5.50;99.90;;;;;;5054674;28;20203;-82
2024/02/24 01:25:50;;;;;;;0.30;0.30;;;5.40;99.90;;;;;;5047265;28;20208;-79
2024/02/24 01:28:17;;;;;;;1.38;1.38;;;5.50;99.90;;;;;;5044403;28;20384;-79
2024/02/24 01:30:44;;;;;;;0.57;0.57;;;5.50;99.90;;;;;;5043966;28;20264;-79
2024/02/24 01:33:11;;;;;;;1.13;1.13;;;5.50;99.90;;;;;;5056461;28;20384;-79
2024/02/24 01:35:38;;;;;;;0.40;0.40;;;5.40;99.90;;;;;;5054161;28;20423;-80
2024/02/24 01:38:05;;;;;;;0.93;0.90;;;5.50;99.90;;;;;;5042033;28;20200;-78
2024/02/24 01:40:33;;;;;;;0.82;0.82;;;5.50;99.90;;;;;;5042390;28;20255;-78
2024/02/24 01:42:59;;;;;;;0.70;0.70;;;5.40;99.90;;;;;;5052860;28;20272;-78
2024/02/24 01:45:26;;;;;;;1.15;1.13;;;5.50;99.90;;;;;;5049966;28;20259;-80
2024/02/24 01:47:53;;;;;;;0.35;0.35;;;5.40;99.90;;;;;;5046280;28;20226;-79
2024/02/24 01:50:21;;;;;;;1.00;1.00;;;5.50;99.90;;;;;;5050202;28;20212;-79
2024/02/24 01:52:49;;;;;;;1.83;1.73;;;5.50;99.90;;;;;;5042754;28;20202;-79
2024/02/24 01:55:17;;;;;;;0.88;0.88;;;5.50;99.90;;;;;;5049798;28;20197;-80
2024/02/24 01:57:46;;;;;;;0.75;0.70;;;5.50;99.90;;;;;;5045567;28;20247;-80
2024/02/24 02:00:14;;;;;;;0.40;0.40;;;5.50;99.90;;;;;;5054334;28;20298;-78
2024/02/24 02:02:41;;;;;;;0.80;0.80;;;5.40;99.90;;;;;;5045265;28;20224;-81
2024/02/24 02:05:08;;;;;;;1.15;1.05;;;5.50;99.90;;;;;;5049699;28;20271;-78
2024/02/24 02:07:35;;;;;;;0.50;0.50;;;5.30;99.90;;;;;;5043081;28;20229;-81
2024/02/24 02:10:04;;;;;;;0.30;0.30;;;5.30;99.90;;;;;;5043677;28;20224;-81
2024/02/24 02:12:34;;;;;;;0.85;0.85;;;5.40;99.90;;;;;;5048958;28;20269;-79
2024/02/24 02:15:03;;;;;;;0.30;0.30;;;5.40;99.90;;;;;;5046501;28;20196;-80
2024/02/24 02:17:30;;;;;;;1.70;0.93;;;5.30;99.90;;;;;;5045952;28;20200;-81
2024/02/24 02:20:04;;;;;;;0.40;0.40;;;5.30;99.90;;;;;;5046824;28;20282;-80
2024/02/24 02:22:32;;;;;;;1.73;1.63;;;5.30;99.90;;;;;;5055754;28;20224;-81
2024/02/24 02:24:59;;;;;;;0.65;0.65;;;5.20;99.90;;;;;;5041239;28;20381;-78
2024/02/24 02:27:26;;;;;;;0.68;0.68;;;5.10;99.90;;;;;;5048955;28;20271;-81
2024/02/24 02:29:53;;;;;;;0.40;0.40;;;5.10;99.90;;;;;;5043080;28;20296;-80
2024/02/24 02:32:20;;;;;;;0.50;0.50;;;5.10;99.90;;;;;;5043741;28;20231;-80
2024/02/24 02:34:47;;;;;;;0.70;0.70;;;5.20;99.90;;;;;;5040551;28;20207;-81
2024/02/24 02:37:14;;;;;;;1.50;1.40;;;5.10;99.90;;;;;;5044853;28;20234;-79
2024/02/24 02:39:41;;;;;;;0.40;0.40;;;5.10;99.90;;;;;;5052778;28;20315;-81
2024/02/24 02:42:08;;;;;;;0.40;0.40;;;5.00;99.90;;;;;;5047525;28;20200;-78
2024/02/24 02:44:35;;;;;;;0.88;0.88;;;5.20;99.90;;;;;;5046876;28;20315;-80
2024/02/24 02:47:02;;;;;;;0.30;0.30;;;5.20;99.90;;;;;;5046837;28;20234;-79
2024/02/24 02:49:42;;;;;;;0.40;0.40;;;5.20;99.90;;;;;;5045028;28;20231;-78
2024/02/24 02:52:09;;;;;;;0.40;0.40;;;5.10;99.90;;;;;;5055035;28;20200;-80
2024/02/24 02:54:36;;;;;;;0.30;0.30;;;5.10;99.90;;;;;;5046070;28;20359;-79
2024/02/24 02:57:03;;;;;;;0.60;0.60;;;5.10;99.90;;;;;;5059584;28;20259;-79
2024/02/24 02:59:34;;;;;;;1.25;1.02;;;5.20;99.90;;;;;;5042967;28;20312;-82
2024/02/24 03:02:02;;;;;;;0.30;0.30;;;5.10;99.90;;;;;;5043345;28;20196;-82
2024/02/24 03:04:29;;;;;;;1.45;1.35;;;5.10;99.90;;;;;;5044553;28;20378;-80
2024/02/24 03:06:55;;;;;;;0.50;0.50;;;5.00;99.90;;;;;;5042864;28;20227;-80
2024/02/24 03:09:24;;;;;;;0.65;0.65;;;5.00;99.90;;;;;;5042270;28;20228;-80
2024/02/24 03:11:51;;;;;;;0.30;0.30;;;5.00;99.90;;;;;;5044223;28;20265;-79
2024/02/24 03:14:18;;;;;;;0.77;0.77;;;5.00;99.90;;;;;;5041609;28;20196;-79
2024/02/24 03:16:45;;;;;;;0.95;0.95;;;4.90;99.90;;;;;;5043027;28;20201;-79
2024/02/24 03:19:13;;;;;;;0.38;0.38;;;4.90;99.90;;;;;;5041638;28;20220;-78
2024/02/24 03:21:39;;;;;;;0.50;0.50;;;4.90;99.90;;;;;;5042530;28;20207;-79
2024/02/24 03:24:07;;;;;;;0.40;0.40;;;4.90;99.90;;;;;;5054874;28;20222;-80
2024/02/24 03:26:34;;;;;;;0.57;0.57;;;4.90;99.90;;;;;;5069332;28;20255;-81
2024/02/24 03:29:01;;;;;;;0.50;0.50;;;4.90;99.90;;;;;;5055686;28;20180;-80
2024/02/24 03:31:28;;;;;;;0.77;0.77;;;4.90;99.90;;;;;;5057296;28;20268;-82
2024/02/24 03:33:55;;;;;;;0.30;0.30;;;4.80;99.90;;;;;;5047159;28;20350;-81
2024/02/24 03:36:23;;;;;;;2.65;1.42;;;4.70;99.90;;;;;;5040277;28;20272;-81
2024/02/24 03:38:50;;;;;;;1.08;1.08;;;4.60;99.90;;;;;;5030023;28;20252;-83
2024/02/24 03:41:17;;;;;;;0.30;0.30;;;4.70;99.90;;;;;;5048082;28;20203;-80
2024/02/24 03:43:44;;;;;;;0.40;0.40;;;4.80;99.90;;;;;;5051361;28;20255;-79
2024/02/24 03:46:11;;;;;;;0.70;0.70;;;4.60;99.90;;;;;;5042635;28;20200;-81
2024/02/24 03:48:39;;;;;;;0.40;0.40;;;4.50;99.90;;;;;;5046129;28;20266;-82
2024/02/24 03:51:06;;;;;;;4.10;1.98;;;4.50;99.90;;;;;;5050766;28;20196;-85
2024/02/24 03:53:33;;;;;;;0.90;0.90;;;4.50;99.90;;;;;;5042708;28;20201;-77
2024/02/24 03:56:00;;;;;;;7.93;0.77;;;4.50;99.90;;;;;;5041383;28;20223;-81
2024/02/24 03:58:27;;;;;;;0.40;0.40;;;4.40;99.90;;;;;;5058049;28;20210;-78
2024/02/24 04:00:55;;;;;;;0.40;0.40;;;4.40;99.90;;;;;;5058281;28;20267;-80
2024/02/24 04:03:22;;;;;;;0.70;0.70;;;4.30;99.90;;;;;;5051235;28;20196;-81
2024/02/24 04:05:50;;;;;;;0.43;0.43;;;4.30;99.90;;;;;;5046914;28;20254;-80
2024/02/24 04:08:17;;;;;;;0.30;0.30;;;4.40;99.90;;;;;;5040547;28;20196;-83
2024/02/24 04:10:44;;;;;;;0.35;0.35;;;4.40;99.90;;;;;;5053308;28;20480;-80
2024/02/24 04:13:12;;;;;;;0.30;0.30;;;4.30;99.90;;;;;;5040696;28;20201;-80
2024/02/24 04:15:46;;;;;;;0.30;0.30;;;4.40;99.90;;;;;;5056968;28;20540;-80
2024/02/24 04:18:14;;;;;;;0.63;0.63;;;4.30;99.90;;;;;;5045740;28;20431;-79
2024/02/24 04:20:43;;;;;;;0.50;0.50;;;4.40;99.90;;;;;;5048831;28;20566;-78
2024/02/24 04:23:11;;;;;;;0.70;0.70;;;4.50;99.90;;;;;;5037990;28;20196;-79
2024/02/24 04:25:37;;;;;;;0.50;0.50;;;4.30;99.90;;;;;;5041982;28;20280;-80
2024/02/24 04:28:05;;;;;;;0.73;0.73;;;4.40;99.90;;;;;;5036741;28;20259;-80
2024/02/24 04:30:32;;;;;;;0.50;0.50;;;4.40;99.90;;;;;;5042099;28;20240;-79
2024/02/24 04:32:58;;;;;;;1.25;1.15;;;4.30;99.90;;;;;;5052851;28;20488;-79
2024/02/24 04:35:26;;;;;;;0.70;0.70;;;4.40;99.90;;;;;;5041987;28;20227;-79
2024/02/24 04:37:54;;;;;;;0.40;0.40;;;4.30;99.90;;;;;;5043018;28;20210;-80
2024/02/24 04:40:21;;;;;;;0.57;0.57;;;4.30;99.90;;;;;;5056259;28;20236;-79
2024/02/24 04:42:47;;;;;;;0.60;0.60;;;4.40;99.90;;;;;;5048596;28;20210;-79
2024/02/24 04:45:14;;;;;;;0.40;0.40;;;4.40;99.90;;;;;;5061757;28;20227;-78
2024/02/24 04:47:41;;;;;;;1.13;0.93;;;4.40;99.90;;;;;;5045850;28;20224;-78
2024/02/24 04:50:09;;;;;;;0.77;0.77;;;4.30;99.90;;;;;;5047037;28;20247;-78
2024/02/24 04:52:36;;;;;;;0.30;0.30;;;4.30;99.90;;;;;;5038861;28;20207;-80
2024/02/24 04:55:04;;;;;;;1.23;1.13;;;4.30;99.90;;;;;;5045437;28;20196;-80
2024/02/24 04:57:32;;;;;;;3.63;1.58;;;4.30;99.90;;;;;;5056150;28;20197;-77
2024/02/24 04:59:59;;;;;;;0.68;0.68;;;4.30;99.90;;;;;;5042893;28;20286;-78
2024/02/24 05:02:26;;;;;;;0.30;0.30;;;4.30;99.90;;;;;;5049976;28;20699;-78
2024/02/24 05:04:53;;;;;;;0.82;0.82;;;4.30;99.90;;;;;;5047121;28;20218;-79
2024/02/24 05:07:20;;;;;;;0.30;0.30;;;4.30;99.90;;;;;;5054247;28;20263;-78
2024/02/24 05:09:47;;;;;;;2.38;1.67;;;4.30;99.90;;;;;;5051758;28;20208;-78
2024/02/24 05:12:14;;;;;;;2.35;1.10;;;4.20;99.90;;;;;;5039650;28;20198;-78
2024/02/24 05:14:41;;;;;;;0.47;0.47;;;4.20;99.90;;;;;;5049004;28;20546;-78
2024/02/24 05:17:10;;;;;;;1.23;1.23;;;4.20;99.90;;;;;;5042101;28;20195;-79
2024/02/24 05:19:38;;;;;;;0.50;0.50;;;4.20;99.90;;;;;;5044293;28;20567;-80
2024/02/24 05:22:05;;;;;;;1.30;1.20;;;4.20;99.90;;;;;;5048361;28;20202;-78
2024/02/24 05:24:32;;;;;;;0.40;0.40;;;4.20;99.90;;;;;;5052694;28;20207;-80
2024/02/24 05:27:00;;;;;;;0.45;0.45;;;4.10;99.90;;;;;;5044238;28;20278;-78
2024/02/24 05:29:27;;;;;;;1.15;1.10;;;4.00;99.90;;;;;;5044867;28;20212;-79
2024/02/24 05:31:53;;;;;;;0.90;0.90;;;4.00;99.90;;;;;;5046296;28;20378;-78
2024/02/24 05:34:20;;;;;;;0.40;0.40;;;4.00;99.90;;;;;;5051405;28;20264;-79
2024/02/24 05:36:48;;;;;;;0.70;0.70;;;4.00;99.90;;;;;;5055058;28;20211;-77
2024/02/24 05:39:15;;;;;;;0.50;0.50;;;4.00;99.90;;;;;;5046098;28;20291;-78
2024/02/24 05:41:42;;;;;;;0.70;0.70;;;4.10;99.90;;;;;;5039852;28;20236;-78
2024/02/24 05:44:09;;;;;;;0.88;0.70;;;4.10;99.90;;;;;;5036801;28;20197;-80
2024/02/24 05:46:36;;;;;;;3.90;0.98;;;4.10;99.90;;;;;;5061818;28;20254;-78
2024/02/24 05:49:03;;;;;;;0.75;0.65;;;4.10;99.90;;;;;;5046811;28;20377;-78
2024/02/24 05:51:30;;;;;;;1.27;1.25;;;4.20;99.90;;;;;;5056033;28;20199;-78
2024/02/24 05:53:57;;;;;;;0.40;0.40;;;4.10;99.90;;;;;;5053162;28;20271;-80
2024/02/24 05:56:25;;;;;;;0.40;0.40;;;4.10;99.90;;;;;;5042582;28;20212;-78
2024/02/24 05:58:51;;;;;;;0.40;0.40;;;4.10;99.90;;;;;;5056311;28;20521;-80
2024/02/24 06:01:18;;;;;;;0.60;0.60;;;4.10;99.90;;;;;;5048536;28;20295;-79
2024/02/24 06:03:45;;;;;;;0.75;0.75;;;4.10;99.90;;;;;;5042874;28;20196;-79
2024/02/24 06:06:12;;;;;;;0.40;0.40;;;4.10;99.90;;;;;;5030719;28;20366;-80
2024/02/24 06:08:40;;;;;;;0.40;0.40;;;4.10;99.90;;;;;;5043306;28;20204;-80
2024/02/24 06:11:07;;;;;;;0.40;0.40;;;4.10;99.90;;;;;;5031229;28;20235;-78
2024/02/24 06:13:34;;;;;;;0.40;0.40;;;4.30;99.90;;;;;;5042833;28;20204;-79
2024/02/24 06:16:01;;;;;;;1.08;1.08;;;4.10;99.90;;;;;;5045549;28;20208;-80
2024/02/24 06:18:30;;;;;;;0.40;0.40;;;4.10;99.90;;;;;;5045584;28;20288;-80
2024/02/24 06:20:57;;;;;;;1.10;1.10;;;4.10;99.90;;;;;;5035775;28;20260;-80
2024/02/24 06:23:24;;;;;;;0.93;0.93;;;4.10;99.90;;;;;;5044243;28;20209;-81
2024/02/24 06:25:52;;;;;;;0.52;0.52;;;4.10;99.90;;;;;;5052919;28;20267;-81
2024/02/24 06:28:19;;;;;;;2.15;2.05;;;4.10;99.90;;;;;;5057472;28;20273;-81
2024/02/24 06:30:46;;;;;;;0.75;0.75;;;4.20;99.90;;;;;;5056746;28;20252;-81
2024/02/24 06:33:13;;;;;;;1.15;1.05;;;4.20;99.90;;;;;;5059814;28;20203;-80
2024/02/24 06:35:40;;;;;;;1.73;1.63;;;4.20;99.90;;;;;;5050063;28;20646;-82
2024/02/24 06:38:08;;;;;;;1.00;0.98;;;4.20;99.90;;;;;;5045225;28;20219;-80
2024/02/24 06:40:34;;;;;;;0.73;0.73;;;4.30;99.90;;;;;;5048153;28;20243;-80
2024/02/24 06:43:12;;;;;;;0.68;0.68;;;4.40;99.90;;;;;;5046580;28;20202;-81
2024/02/24 06:45:39;;;;;;;0.73;0.73;;;4.30;99.90;;;;;;5044337;28;20518;-81
2024/02/24 06:48:06;;;;;;;0.82;0.82;;;4.30;99.90;;;;;;5047939;28;20204;-81
2024/02/24 06:50:34;;;;;;;2.15;2.05;;;4.30;99.90;;;;;;5039633;28;20227;-80
2024/02/24 06:53:01;;;;;;;0.40;0.40;;;4.30;99.90;;;;;;5045131;28;20235;-82
2024/02/24 06:55:28;;;;;;;1.42;0.75;;;4.30;99.90;;;;;;5049868;28;20203;-81
2024/02/24 06:57:55;;;;;;;0.80;0.80;;;4.40;99.90;;;;;;5046468;28;20238;-81
2024/02/24 07:00:26;;;;;;;1.08;1.08;;;4.60;99.90;;;;;;5042734;28;20297;-80
2024/02/24 07:02:54;;;;;;;1.30;1.30;;;4.70;99.90;;;;;;5037389;28;20271;-80
2024/02/24 07:05:21;;;;;;;0.68;0.68;;;4.70;99.90;;;;;;5045027;28;20202;-80
2024/02/24 07:07:48;;;;;;;1.00;0.85;;;4.70;99.90;;;;;;5037819;28;20207;-80
2024/02/24 07:10:15;;;;;;;0.95;0.95;;;4.80;99.90;;;;;;5046119;28;20199;-79
2024/02/24 07:12:43;;;;;;;2.00;1.83;;;5.10;99.90;;;;;;5050266;28;20485;-79
2024/02/24 07:15:11;;;;;;;1.02;1.02;;;5.50;99.90;;;;;;5046351;28;20234;-79
2024/02/24 07:17:38;;;;;;;0.85;0.85;;;5.50;99.90;;;;;;5042681;28;20250;-80
2024/02/24 07:20:06;;;;;;;0.98;0.98;;;5.90;99.90;;;;;;5042571;28;20223;-81
2024/02/24 07:22:33;;;;;;;0.52;0.52;;;6.00;99.90;;;;;;5047843;28;20495;-80
2024/02/24 07:25:02;;;;;;;4.10;1.95;;;6.10;99.90;;;;;;5049013;28;20396;-80
2024/02/24 07:27:29;;;;;;;0.50;0.50;;;6.40;99.90;;;;;;5041238;28;20231;-80
2024/02/24 07:29:56;;;;;;;0.43;0.43;;;6.80;99.90;;;;;;5046550;28;20252;-79
2024/02/24 07:32:23;;;;;;;0.45;0.45;;;7.20;99.90;;;;;;5038335;28;20262;-80
2024/02/24 07:34:50;;;;;;;0.40;0.40;;;7.60;99.90;;;;;;5060251;28;20394;-78
2024/02/24 07:37:17;;;;;;;0.70;0.70;;;8.10;99.90;;;;;;5039245;28;20209;-79
2024/02/24 07:39:44;;;;;;;0.40;0.40;;;8.80;99.90;;;;;;5041976;28;20297;-79
2024/02/24 07:42:14;;;;;;;0.85;0.85;;;9.20;99.90;;;;;;5034217;28;20219;-79
2024/02/24 07:44:41;;;;;;;0.50;0.50;;;9.60;99.90;;;;;;5045413;28;20517;-78
2024/02/24 07:47:08;;;;;;;0.50;0.50;;;10.60;99.90;;;;;;5039282;28;20223;-79
2024/02/24 07:49:36;;;;;;;0.60;0.60;;;11.00;99.90;;;;;;5041647;28;20223;-77
2024/02/24 07:52:04;;;;;;;0.60;0.60;;;11.60;99.90;;;;;;5040887;28;20331;-78
2024/02/24 07:54:31;;;;;;;0.60;0.60;;;11.20;99.90;;;;;;5034581;28;20208;-77
2024/02/24 07:56:59;;;;;;;0.60;0.60;;;12.10;99.90;;;;;;5036824;28;20429;-79
2024/02/24 07:59:26;;;;;;;0.63;0.63;;;13.00;99.90;;;;;;5040848;28;20202;-78
2024/02/24 08:01:53;;;;;;;0.60;0.60;;;13.00;99.90;;;;;;5036878;28;20202;-78
2024/02/24 08:04:20;;;;;;;0.80;0.80;;;13.60;99.90;;;;;;5029897;28;20238;-78
2024/02/24 08:06:48;;;;;;;1.03;1.03;;;13.20;99.90;;;;;;5030808;28;20354;-78
2024/02/24 08:09:15;;;;;;;1.00;1.00;;;13.40;99.90;;;;;;5041936;28;20546;-78
2024/02/24 08:11:42;;;;;;;1.00;1.00;;;14.00;99.90;;;;;;5054168;28;20423;-82
2024/02/24 08:14:10;;;;;;;0.83;0.83;;;14.00;99.90;;;;;;5030582;28;20420;-81
2024/02/24 08:16:38;;;;;;;1.10;1.07;;;14.40;99.90;;;;;;5045641;28;20417;-80
2024/02/24 08:19:06;;;;;;;0.90;0.90;;;13.60;99.90;;;;;;5046587;28;20484;-80
2024/02/24 08:21:37;;;;;;;0.80;0.80;;;13.50;99.90;;;;;;5043232;28;20534;-82
2024/02/24 08:24:07;;;;;;;1.43;1.43;;;13.20;99.90;;;;;;5043504;28;20408;-79
2024/02/24 08:26:42;;;;;;;2.63;2.07;;;12.90;99.90;;;;;;5041964;28;20435;-80
2024/02/24 08:29:09;;;;;;;0.80;0.80;;;13.20;99.90;;;;;;5047618;28;20502;-79
2024/02/24 08:31:38;;;;;;;0.80;0.80;;;12.60;99.90;;;;;;5030431;28;20504;-75
2024/02/24 08:34:05;;;;;;;0.70;0.70;;;12.90;99.90;;;;;;5052041;28;20421;-77
2024/02/24 08:36:34;;;;;;;0.70;0.70;;;12.70;99.90;;;;;;5053136;28;20416;-79
2024/02/24 08:39:02;;;;;;;2.30;2.20;;;13.50;99.90;;;;;;5047215;28;20478;-77
2024/02/24 08:41:33;;;;;;;1.03;1.03;;;12.40;99.90;;;;;;5050379;28;20463;-78
2024/02/24 08:44:03;;;;;;;1.57;1.47;;;12.70;99.90;;;;;;5051423;28;20404;-78
2024/02/24 08:46:30;;;;;;;1.10;1.10;;;12.20;99.90;;;;;;5044165;28;20442;-78
2024/02/24 08:48:57;;;;;;;0.80;0.80;;;11.40;99.90;;;;;;5053327;28;20449;-77
2024/02/24 08:51:27;;;;;;;0.70;0.70;;;10.80;99.90;;;;;;5051452;28;20505;-78
2024/02/24 08:53:54;;;;;;;0.80;0.80;;;10.40;99.90;;;;;;5043513;28;20516;-78
2024/02/24 08:56:23;;;;;;;0.80;0.80;;;10.80;99.90;;;;;;5045321;28;20434;-78
2024/02/24 08:58:50;;;;;;;0.80;0.80;;;10.60;99.90;;;;;;5058749;28;20640;-77
2024/02/24 09:01:18;;;;;;;1.83;1.73;;;10.60;99.90;;;;;;5041571;28;20487;-81
2024/02/24 09:03:46;;;;;;;1.63;0.90;;;10.90;99.90;;;;;;5053348;28;20411;-77
2024/02/24 09:06:14;;;;;;;0.80;0.80;;;10.70;99.90;;;;;;5044911;28;20489;-77
2024/02/24 09:08:42;;;;;;;0.90;0.90;;;10.70;99.90;;;;;;5045292;28;20521;-77
2024/02/24 09:11:09;;;;;;;1.30;1.20;;;10.70;99.90;;;;;;5059312;28;20441;-78
2024/02/24 09:13:36;;;;;;;0.93;0.93;;;10.90;99.90;;;;;;5044848;28;20438;-77
2024/02/24 09:16:03;;;;;;;0.70;0.70;;;11.20;99.90;;;;;;5061194;28;20813;-78
2024/02/24 09:18:31;;;;;;;0.60;0.60;;;10.80;99.90;;;;;;5055211;28;20412;-80
2024/02/24 09:20:58;;;;;;;0.60;0.60;;;10.40;99.90;;;;;;5048737;28;20462;-79
2024/02/24 09:23:25;;;;;;;0.90;0.90;;;10.50;99.90;;;;;;5054245;28;20462;-78
2024/02/24 09:25:52;;;;;;;0.70;0.70;;;10.40;99.90;;;;;;5045705;28;20725;-78
2024/02/24 09:28:20;;;;;;;0.70;0.70;;;10.50;99.90;;;;;;5049157;28;20440;-80
2024/02/24 09:30:47;;;;;;;0.70;0.70;;;10.10;99.90;;;;;;5053955;28;20445;-78
2024/02/24 09:33:14;;;;;;;0.63;0.63;;;10.30;99.90;;;;;;5045443;28;20432;-82
2024/02/24 09:35:41;;;;;;;0.60;0.60;;;9.80;99.90;;;;;;5057222;28;20415;-79
2024/02/24 09:38:09;;;;;;;0.90;0.90;;;9.70;99.90;;;;;;5055339;28;20263;-80
2024/02/24 09:40:36;;;;;;;0.70;0.70;;;9.60;99.90;;;;;;5043124;28;20225;-79
2024/02/24 09:43:04;;;;;;;0.98;0.98;;;9.50;99.90;;;;;;5056419;28;20196;-78
2024/02/24 09:45:35;;;;;;;0.70;0.70;;;9.30;99.90;;;;;;5055683;28;20649;-77
2024/02/24 09:48:03;;;;;;;1.02;1.02;;;9.40;99.90;;;;;;5047427;28;20508;-78
2024/02/24 09:50:30;;;;;;;0.70;0.70;;;9.50;99.90;;;;;;5042423;28;20204;-80
2024/02/24 09:52:57;;;;;;;0.60;0.60;;;9.60;99.90;;;;;;5045289;28;20215;-77
2024/02/24 09:55:24;;;;;;;0.60;0.60;;;9.90;99.90;;;;;;5054938;28;20212;-78
2024/02/24 09:57:56;;;;;;;0.60;0.60;;;9.60;99.90;;;;;;5035913;28;20232;-81
2024/02/24 10:00:23;;;;;;;0.60;0.60;;;9.80;99.90;;;;;;5036199;28;20450;-81
2024/02/24 10:02:50;;;;;;;0.60;0.60;;;9.70;99.90;;;;;;5046011;28;20212;-80
2024/02/24 10:05:18;;;;;;;0.60;0.60;;;9.40;99.90;;;;;;5047637;28;20236;-80
2024/02/24 10:07:46;;;;;;;1.02;1.02;;;9.60;99.90;;;;;;5040918;28;20234;-81
2024/02/24 10:10:16;;;;;;;0.60;0.60;;;9.80;99.90;;;;;;5044667;28;20228;-82
2024/02/24 10:13:01;;;;;;;0.50;0.50;;;9.80;99.90;;;;;;5053174;28;20195;-81
2024/02/24 10:15:29;;;;;;;0.60;0.60;;;9.80;99.90;;;;;;5040259;28;20205;-82
2024/02/24 10:18:00;;;;;;;0.70;0.70;;;9.70;99.90;;;;;;5045455;28;20235;-79
2024/02/24 10:20:28;;;;;;;0.60;0.60;;;9.60;99.90;;;;;;5038111;28;20521;-80
2024/02/24 10:22:57;;;;;;;0.60;0.60;;;9.70;99.90;;;;;;5047081;28;20204;-77
2024/02/24 10:25:24;;;;;;;0.60;0.60;;;10.00;99.90;;;;;;5047270;28;20253;-79
2024/02/24 10:27:51;;;;;;;0.70;0.70;;;10.10;99.90;;;;;;5057334;28;20253;-81
2024/02/24 10:30:20;;;;;;;0.95;0.90;;;10.30;99.90;;;;;;5059077;28;20196;-78
2024/02/24 10:32:53;;;;;;;1.08;1.08;;;10.30;99.90;;;;;;5053396;28;20189;-78
2024/02/24 10:35:20;;;;;;;0.60;0.60;;;10.10;99.90;;;;;;5053835;28;20197;-78
2024/02/24 10:37:50;;;;;;;2.17;2.08;;;10.00;99.90;;;;;;5056340;28;20248;-79
2024/02/24 10:40:38;;;;;;;0.70;0.70;;;9.80;99.90;;;;;;5054241;28;20220;-80
2024/02/24 10:43:06;;;;;;;0.60;0.60;;;9.70;99.90;;;;;;5056609;28;20204;-78
2024/02/24 10:45:33;;;;;;;0.60;0.60;;;9.70;99.90;;;;;;5047094;28;20200;-79
2024/02/24 10:48:00;;;;;;;0.60;0.60;;;9.90;99.90;;;;;;5045715;28;20201;-80
2024/02/24 10:50:27;;;;;;;0.63;0.63;;;10.20;99.90;;;;;;5053211;28;20200;-78
2024/02/24 10:52:57;;;;;;;0.82;0.82;;;10.00;99.90;;;;;;5043902;28;20200;-77
2024/02/24 10:55:25;;;;;;;0.60;0.60;;;10.30;99.90;;;;;;5045402;28;20546;-78
2024/02/24 10:57:55;;;;;;;0.70;0.70;;;10.50;99.90;;;;;;5045369;28;20223;-79
2024/02/24 11:00:34;;;;;;;0.60;0.60;;;10.50;99.90;;;;;;5042354;28;20231;-78
2024/02/24 11:03:04;;;;;;;0.60;0.60;;;10.30;99.90;;;;;;5052220;28;20250;-77
2024/02/24 11:05:32;;;;;;;2.35;1.77;;;10.20;99.90;;;;;;5043723;28;20208;-78
2024/02/24 11:08:02;;;;;;;0.60;0.60;;;10.30;99.90;;;;;;5043794;28;20208;-77
2024/02/24 11:10:33;;;;;;;0.70;0.70;;;10.60;99.90;;;;;;5042373;28;20211;-79
2024/02/24 11:13:02;;;;;;;0.60;0.60;;;10.80;99.90;;;;;;5045314;28;20288;-77
2024/02/24 11:15:29;;;;;;;0.80;0.80;;;10.70;99.90;;;;;;5054406;28;20259;-77
2024/02/24 11:17:57;;;;;;;1.80;1.70;;;10.50;99.90;;;;;;5054812;28;20203;-80
2024/02/24 11:20:37;;;;;;;0.60;0.60;;;10.60;99.90;;;;;;5033618;28;20208;-79
2024/02/24 11:23:31;;;;;;;0.60;0.60;;;10.70;99.90;;;;;;5054629;28;20216;-78
2024/02/24 11:26:20;;;;;;;0.60;0.60;;;10.80;99.90;;;;;;5043431;28;20196;-78
2024/02/24 11:29:01;;;;;;;0.50;0.50;;;10.80;99.90;;;;;;5030592;28;20386;-77
2024/02/24 11:31:29;;;;;;;1.15;1.13;;;10.20;99.90;;;;;;5041143;28;20362;-79
2024/02/24 11:34:07;;;;;;;0.55;0.55;;;10.00;99.90;;;;;;5050141;28;20231;-79
2024/02/24 11:36:38;;;;;;;0.70;0.70;;;10.00;99.90;;;;;;5036478;28;20204;-79
2024/02/24 11:39:11;;;;;;;1.00;1.00;;;10.30;99.90;;;;;;5051113;28;20189;-78
2024/02/24 11:41:40;;;;;;;0.70;0.70;;;10.40;99.90;;;;;;5044931;28;20216;-78
2024/02/24 11:44:08;;;;;;;2.17;2.08;;;10.50;99.90;;;;;;5043995;28;20266;-78
2024/02/24 11:46:35;;;;;;;0.60;0.60;;;10.60;99.90;;;;;;5043603;28;20205;-79
2024/02/24 11:49:03;;;;;;;0.50;0.50;;;10.50;99.90;;;;;;5042466;28;20204;-77
2024/02/24 11:51:30;;;;;;;0.50;0.50;;;10.40;99.90;;;;;;5044498;28;20688;-81
2024/02/24 11:53:58;;;;;;;0.60;0.60;;;10.40;99.90;;;;;;5044892;28;20240;-81
2024/02/24 11:56:25;;;;;;;0.70;0.70;;;10.20;99.90;;;;;;5056296;28;20200;-80
2024/02/24 11:58:56;;;;;;;0.60;0.60;;;10.00;99.90;;;;;;5038847;28;20201;-79
2024/02/24 12:01:23;;;;;;;0.60;0.60;;;9.90;99.90;;;;;;5040158;28;20600;-78
2024/02/24 12:03:51;;;;;;;0.82;0.82;;;9.90;99.90;;;;;;5048919;28;20231;-79
2024/02/24 12:06:18;;;;;;;0.70;0.70;;;10.00;99.90;;;;;;5039584;28;20215;-80
2024/02/24 12:08:47;;;;;;;0.70;0.70;;;10.00;99.90;;;;;;5043565;28;20208;-79
2024/02/24 12:11:15;;;;;;;0.95;0.95;;;10.20;99.90;;;;;;5039944;28;20529;-81
2024/02/24 12:13:42;;;;;;;0.60;0.60;;;10.10;99.90;;;;;;5039578;28;20205;-82
2024/02/24 12:16:09;;;;;;;0.60;0.60;;;10.10;99.90;;;;;;5040983;28;20219;-79
2024/02/24 12:18:41;;;;;;;0.70;0.70;;;10.10;99.90;;;;;;5048432;28;20384;-81
2024/02/24 12:21:10;;;;;;;0.60;0.60;;;10.00;99.90;;;;;;5050048;28;20212;-79
2024/02/24 12:23:41;;;;;;;0.60;0.60;;;10.00;99.90;;;;;;5045297;28;20205;-82
2024/02/24 12:26:20;;;;;;;0.80;0.80;;;10.10;99.90;;;;;;5048585;28;20210;-79
2024/02/24 12:28:47;;;;;;;0.70;0.70;;;10.00;99.90;;;;;;5046524;28;20208;-81
2024/02/24 12:31:15;;;;;;;1.08;1.08;;;10.00;99.90;;;;;;5041905;28;20200;-80
2024/02/24 12:33:43;;;;;;;0.60;0.60;;;9.90;99.90;;;;;;5039534;28;20200;-82
2024/02/24 12:36:13;;;;;;;6.18;2.85;;;9.90;99.90;;;;;;5038531;28;20620;-80
2024/02/24 12:38:41;;;;;;;0.88;0.88;;;9.90;99.90;;;;;;5045093;28;20211;-81
2024/02/24 12:41:12;;;;;;;0.90;0.90;;;10.00;99.90;;;;;;5040968;28;20514;-79
2024/02/24 12:43:40;;;;;;;0.90;0.90;;;10.20;99.90;;;;;;5037079;28;20228;-80
2024/02/24 12:46:08;;;;;;;0.70;0.70;;;10.20;99.90;;;;;;5052149;28;20225;-80
2024/02/24 12:48:36;;;;;;;1.23;1.23;;;10.00;99.90;;;;;;5042461;28;20213;-83
2024/02/24 12:51:09;;;;;;;0.98;0.98;;;10.00;99.90;;;;;;5042096;28;20197;-79
2024/02/24 12:53:36;;;;;;;0.60;0.60;;;9.90;99.90;;;;;;5038343;28;20276;-79
2024/02/24 12:56:03;;;;;;;8.07;2.90;;;10.00;99.90;;;;;;5039445;28;20500;-82
2024/02/24 12:58:30;;;;;;;0.80;0.80;;;9.80;99.90;;;;;;5039357;28;20357;-81